createdAt,value
2023-03-28T00:00:17.540Z,72.69
2023-03-28T00:02:44.055Z,71.31
2023-03-28T00:05:11.391Z,72.71
2023-03-28T00:07:38.656Z,72.58
2023-03-28T00:10:07.993Z,72.59
2023-03-28T00:12:34.445Z,73.25
2023-03-28T00:15:01.670Z,72.62
2023-03-28T00:17:28.158Z,73.39
2023-03-28T00:19:54.592Z,73.07
2023-03-28T00:22:21.468Z,72.24
2023-03-28T00:24:48.889Z,72.88
2023-03-28T00:27:16.015Z,72.44
2023-03-28T00:29:42.525Z,73.13
2023-03-28T00:32:09.185Z,72.45
2023-03-28T00:34:35.945Z,72.24
2023-03-28T00:37:05.562Z,71.96
2023-03-28T00:39:32.215Z,72.62
2023-03-28T00:42:01.650Z,72.22
2023-03-28T00:44:48.645Z,71.53
2023-03-28T00:47:36.906Z,71.85
2023-03-28T00:50:07.304Z,72.35
2023-03-28T00:52:39.969Z,71.55
2023-03-28T00:55:07.998Z,72.33
2023-03-28T00:57:34.855Z,72.17
2023-03-28T01:00:01.403Z,71.14
2023-03-28T01:02:27.904Z,71.94
2023-03-28T01:05:01.183Z,72.67
2023-03-28T01:07:35.466Z,71.19
2023-03-28T01:10:03.995Z,70.99
2023-03-28T01:12:33.199Z,71.08
2023-03-28T01:15:01.018Z,71.63
2023-03-28T01:17:28.061Z,70.78
2023-03-28T01:20:14.712Z,71.32
2023-03-28T01:23:04.484Z,71.30
2023-03-28T01:25:54.729Z,70.84
2023-03-28T01:28:32.641Z,70.76
2023-03-28T01:30:59.041Z,71.50
2023-03-28T01:33:28.308Z,70.39
2023-03-28T01:36:34.197Z,70.06
2023-03-28T01:39:01.962Z,70.03
2023-03-28T01:41:34.289Z,70.75
2023-03-28T01:44:21.126Z,70.14
2023-03-28T01:47:16.900Z,70.54
2023-03-28T01:50:03.307Z,70.43
2023-03-28T01:52:41.192Z,70.65
2023-03-28T01:55:14.345Z,70.68
2023-03-28T01:57:49.931Z,69.45
2023-03-28T02:00:21.310Z,69.88
2023-03-28T02:02:57.265Z,70.17
2023-03-28T02:05:25.128Z,70.41
2023-03-28T02:07:54.691Z,70.51
2023-03-28T02:10:24.106Z,70.18
2023-03-28T02:12:59.293Z,70.47
2023-03-28T02:15:27.184Z,70.33
2023-03-28T02:17:59.162Z,69.94
2023-03-28T02:20:28.654Z,69.47
2023-03-28T02:23:15.322Z,69.37
2023-03-28T02:25:41.834Z,69.29
2023-03-28T02:28:09.050Z,69.71
2023-03-28T02:30:36.851Z,68.93
2023-03-28T02:33:04.704Z,69.29
2023-03-28T02:35:49.742Z,69.13
2023-03-28T02:38:27.966Z,69.83
2023-03-28T02:41:03.614Z,69.22
2023-03-28T02:43:46.082Z,69.06
2023-03-28T02:46:31.416Z,69.21
2023-03-28T02:49:04.200Z,70.13
2023-03-28T02:51:49.068Z,69.81
2023-03-28T02:54:36.239Z,69.64
2023-03-28T02:57:18.647Z,69.64
2023-03-28T02:59:45.493Z,69.06
2023-03-28T03:02:16.326Z,69.83
2023-03-28T03:04:43.081Z,69.88
2023-03-28T03:07:09.693Z,70.04
2023-03-28T03:09:36.139Z,69.99
2023-03-28T03:12:02.609Z,69.17
2023-03-28T03:14:29.034Z,69.52
2023-03-28T03:16:55.496Z,69.91
2023-03-28T03:19:21.942Z,69.20
2023-03-28T03:21:49.933Z,68.53
2023-03-28T03:24:16.373Z,69.79
2023-03-28T03:26:42.899Z,70.00
2023-03-28T03:29:09.366Z,69.50
2023-03-28T03:31:37.033Z,69.19
2023-03-28T03:34:04.146Z,69.35
2023-03-28T03:36:31.758Z,69.59
2023-03-28T03:38:58.419Z,69.63
2023-03-28T03:41:24.935Z,69.77
2023-03-28T03:43:51.506Z,69.56
2023-03-28T03:46:18.086Z,69.63
2023-03-28T03:48:49.673Z,69.54
2023-03-28T03:51:16.932Z,69.71
2023-03-28T03:53:43.402Z,69.47
2023-03-28T03:56:10.243Z,69.08
2023-03-28T03:58:36.703Z,69.42
2023-03-28T04:01:03.623Z,69.32
2023-03-28T04:03:30.173Z,68.84
2023-03-28T04:05:58.158Z,68.97
2023-03-28T04:08:24.950Z,69.16
2023-03-28T04:10:51.433Z,68.97
2023-03-28T04:13:17.891Z,69.49
2023-03-28T04:15:46.072Z,69.99
2023-03-28T04:18:12.534Z,70.23
2023-03-28T04:20:40.461Z,70.27
2023-03-28T04:23:08.546Z,70.00
2023-03-28T04:25:35.223Z,70.15
2023-03-28T04:28:01.942Z,70.05
2023-03-28T04:30:28.546Z,70.36
2023-03-28T04:32:55.050Z,70.35
2023-03-28T04:35:21.652Z,69.82
2023-03-28T04:37:49.275Z,70.24
2023-03-28T04:40:16.257Z,70.63
2023-03-28T04:42:42.716Z,69.91
2023-03-28T04:45:09.521Z,70.02
2023-03-28T04:47:40.222Z,69.95
2023-03-28T04:50:10.316Z,70.01
2023-03-28T04:52:36.825Z,70.02
2023-03-28T04:55:03.714Z,69.81
2023-03-28T04:57:30.389Z,70.18
2023-03-28T04:59:56.883Z,70.32
2023-03-28T05:02:23.546Z,70.11
2023-03-28T05:04:50.274Z,70.24
2023-03-28T05:07:16.712Z,70.64
2023-03-28T05:09:43.417Z,70.43
2023-03-28T05:12:09.887Z,69.57
2023-03-28T05:14:36.380Z,71.11
2023-03-28T05:17:02.805Z,70.56
2023-03-28T05:19:29.268Z,69.49
2023-03-28T05:21:55.988Z,69.62
2023-03-28T05:24:22.460Z,70.08
2023-03-28T05:26:48.899Z,69.44
2023-03-28T05:29:15.537Z,69.39
2023-03-28T05:31:41.974Z,69.81
2023-03-28T05:34:08.455Z,70.54
2023-03-28T05:36:34.899Z,70.87
2023-03-28T05:39:01.457Z,71.69
2023-03-28T05:41:28.184Z,72.23
2023-03-28T05:43:54.631Z,73.71
2023-03-28T05:46:21.321Z,74.49
2023-03-28T05:48:49.618Z,77.77
2023-03-28T05:51:17.196Z,79.63
2023-03-28T05:53:43.772Z,80.83
2023-03-28T05:56:10.676Z,81.48
2023-03-28T05:58:40.324Z,81.41
2023-03-28T06:01:06.998Z,81.97
2023-03-28T06:03:33.439Z,80.95
2023-03-28T06:06:00.162Z,81.50
2023-03-28T06:08:27.508Z,80.96
2023-03-28T06:10:53.992Z,81.09
2023-03-28T06:13:20.690Z,80.78
2023-03-28T06:15:47.147Z,80.59
2023-03-28T06:18:13.647Z,80.92
2023-03-28T06:20:40.220Z,80.80
2023-03-28T06:23:06.654Z,81.70
2023-03-28T06:25:33.149Z,81.26
2023-03-28T06:27:59.640Z,81.38
2023-03-28T06:30:26.076Z,82.32
2023-03-28T06:32:52.605Z,81.97
2023-03-28T06:35:19.188Z,82.97
2023-03-28T06:37:45.621Z,82.83
2023-03-28T06:40:12.087Z,82.24
2023-03-28T06:42:38.542Z,82.30
2023-03-28T06:45:05.135Z,81.75
2023-03-28T06:47:31.632Z,81.47
2023-03-28T06:49:58.211Z,81.31
2023-03-28T06:52:24.673Z,81.35
2023-03-28T06:54:51.814Z,80.81
2023-03-28T06:57:18.310Z,80.52
2023-03-28T06:59:44.856Z,80.85
2023-03-28T07:02:12.097Z,80.94
2023-03-28T07:04:38.647Z,80.08
2023-03-28T07:07:05.189Z,79.79
2023-03-28T07:09:31.693Z,79.46
2023-03-28T07:11:58.115Z,78.59
2023-03-28T07:14:24.678Z,79.01
2023-03-28T07:16:51.200Z,79.41
2023-03-28T07:19:17.628Z,80.53
2023-03-28T07:21:44.056Z,81.67
2023-03-28T07:24:10.646Z,82.34
2023-03-28T07:26:37.129Z,81.63
2023-03-28T07:29:03.685Z,80.86
2023-03-28T07:31:30.175Z,79.27
2023-03-28T07:33:58.208Z,79.88
2023-03-28T07:36:26.506Z,79.82
2023-03-28T07:38:52.935Z,79.18
2023-03-28T07:41:19.969Z,79.32
2023-03-28T07:43:46.428Z,78.70
2023-03-28T07:46:16.995Z,79.75
2023-03-28T07:48:44.016Z,79.87
2023-03-28T07:51:10.816Z,80.41
2023-03-28T07:53:38.017Z,81.67
2023-03-28T07:56:05.295Z,81.15
2023-03-28T07:58:31.775Z,81.74
2023-03-28T08:01:03.624Z,81.62
2023-03-28T08:03:30.250Z,81.25
2023-03-28T08:05:57.965Z,81.09
2023-03-28T08:08:24.450Z,81.09
2023-03-28T08:10:51.430Z,80.41
2023-03-28T08:13:18.476Z,80.69
2023-03-28T08:15:44.946Z,81.31
2023-03-28T08:18:13.027Z,80.81
2023-03-28T08:20:39.483Z,80.84
2023-03-28T08:23:07.436Z,81.85
2023-03-28T08:25:33.879Z,82.27
2023-03-28T08:28:00.346Z,82.58
2023-03-28T08:30:26.920Z,81.78
2023-03-28T08:32:53.515Z,81.74
2023-03-28T08:35:20.108Z,81.88
2023-03-28T08:37:46.580Z,80.66
2023-03-28T08:40:16.345Z,80.49
2023-03-28T08:42:42.814Z,80.71
2023-03-28T08:45:25.406Z,80.20
2023-03-28T08:47:54.988Z,80.38
2023-03-28T08:50:43.422Z,80.54
2023-03-28T08:53:37.506Z,81.39
2023-03-28T08:56:06.175Z,80.10
2023-03-28T08:58:37.609Z,79.97
2023-03-28T09:01:04.463Z,79.69
2023-03-28T09:03:32.822Z,77.32
2023-03-28T09:06:01.387Z,76.11
2023-03-28T09:08:40.491Z,74.88
2023-03-28T09:11:12.767Z,73.10
2023-03-28T09:13:53.600Z,72.93
2023-03-28T09:16:26.227Z,70.80
2023-03-28T09:19:11.361Z,71.17
2023-03-28T09:21:37.775Z,71.76
2023-03-28T09:24:10.307Z,70.15
2023-03-28T09:26:40.730Z,71.31
2023-03-28T09:29:13.305Z,71.44
2023-03-28T09:31:47.887Z,71.27
2023-03-28T09:34:27.397Z,70.14
2023-03-28T09:36:56.706Z,72.45
2023-03-28T09:39:30.333Z,72.62
2023-03-28T09:42:11.345Z,73.32
2023-03-28T09:44:53.406Z,73.68
2023-03-28T09:47:21.443Z,75.39
2023-03-28T09:49:48.505Z,77.19
2023-03-28T09:52:16.294Z,77.86
2023-03-28T09:54:43.341Z,78.81
2023-03-28T09:57:09.825Z,79.23
2023-03-28T09:59:37.065Z,79.97
2023-03-28T10:02:04.275Z,79.65
2023-03-28T10:04:32.423Z,79.94
2023-03-28T10:07:22.335Z,81.92
2023-03-28T10:09:50.698Z,83.34
2023-03-28T10:12:25.448Z,85.10
2023-03-28T10:14:52.056Z,85.95
2023-03-28T10:17:26.838Z,86.09
2023-03-28T10:19:58.111Z,85.27
2023-03-28T10:22:30.951Z,84.52
2023-03-28T10:24:57.668Z,85.06
2023-03-28T10:27:31.952Z,84.89
2023-03-28T10:30:06.924Z,83.43
2023-03-28T10:32:33.448Z,82.58
2023-03-28T10:35:25.739Z,79.01
2023-03-28T10:37:56.533Z,78.86
2023-03-28T10:40:25.323Z,78.92
2023-03-28T10:42:52.090Z,78.09
2023-03-28T10:45:19.694Z,77.27
2023-03-28T10:47:46.725Z,77.42
2023-03-28T10:50:27.609Z,77.77
2023-03-28T10:53:02.152Z,77.53
2023-03-28T10:55:37.610Z,78.53
2023-03-28T10:58:04.033Z,77.59
2023-03-28T11:00:34.376Z,76.00
2023-03-28T11:03:07.027Z,73.49
2023-03-28T11:06:05.824Z,75.06
2023-03-28T11:08:41.570Z,73.01
2023-03-28T11:11:14.205Z,73.97
2023-03-28T11:13:53.230Z,74.85
2023-03-28T11:16:42.824Z,77.41
2023-03-28T11:19:27.793Z,79.92
2023-03-28T11:21:57.372Z,83.57
2023-03-28T11:24:26.857Z,84.08
2023-03-28T11:27:14.723Z,84.25
2023-03-28T11:29:49.288Z,83.04
2023-03-28T11:32:15.945Z,81.24
2023-03-28T11:34:46.268Z,78.22
2023-03-28T11:37:17.556Z,78.72
2023-03-28T11:39:44.444Z,76.99
2023-03-28T11:42:20.707Z,76.47
2023-03-28T11:44:58.818Z,72.07
2023-03-28T11:47:28.248Z,72.41
2023-03-28T11:49:59.274Z,71.25
2023-03-28T11:52:28.371Z,71.13
2023-03-28T11:55:01.197Z,69.47
2023-03-28T11:57:31.261Z,70.78
2023-03-28T12:02:59.553Z,70.33
2023-03-28T12:05:35.744Z,71.84
2023-03-28T12:08:04.451Z,72.05
2023-03-28T12:10:35.983Z,71.83
2023-03-28T12:13:11.664Z,71.72
2023-03-28T12:15:49.568Z,69.52
2023-03-28T12:18:27.135Z,70.12
2023-03-28T12:21:01.401Z,71.08
2023-03-28T12:23:48.306Z,70.97
2023-03-28T12:26:38.178Z,71.90
2023-03-28T12:29:09.696Z,72.09
2023-03-28T12:31:42.168Z,72.80
2023-03-28T12:34:23.544Z,72.40
2023-03-28T12:36:57.580Z,74.43
2023-03-28T12:39:35.470Z,75.83
2023-03-28T12:42:04.014Z,76.64
2023-03-28T12:44:36.394Z,73.09
2023-03-28T12:47:06.080Z,73.78
2023-03-28T12:49:51.375Z,69.18
2023-03-28T12:52:24.481Z,68.46
2023-03-28T12:54:57.635Z,68.33
2023-03-28T12:57:40.918Z,69.02
2023-03-28T13:00:26.646Z,66.31
2023-03-28T13:02:53.102Z,61.90
2023-03-28T13:05:22.976Z,62.52
2023-03-28T13:07:58.700Z,61.89
2023-03-28T13:10:31.225Z,62.18
2023-03-28T13:13:01.702Z,62.76
2023-03-28T13:15:31.045Z,61.66
2023-03-28T13:18:16.351Z,60.18
2023-03-28T13:20:47.854Z,60.93
2023-03-28T13:23:15.309Z,62.14
2023-03-28T13:25:42.737Z,62.18
2023-03-28T13:28:12.288Z,63.17
2023-03-28T13:30:47.647Z,63.71
2023-03-28T13:33:26.108Z,63.96
2023-03-28T13:35:58.633Z,64.87
2023-03-28T13:38:32.697Z,64.26
2023-03-28T13:41:06.383Z,64.44
2023-03-28T13:43:36.023Z,63.78
2023-03-28T13:46:07.493Z,65.18
2023-03-28T13:48:37.220Z,65.27
2023-03-28T13:51:06.831Z,64.00
2023-03-28T13:53:47.067Z,64.47
2023-03-28T13:56:19.992Z,64.58
2023-03-28T13:58:48.324Z,63.85
2023-03-28T14:01:19.299Z,64.04
2023-03-28T14:03:47.249Z,63.68
2023-03-28T14:06:22.726Z,63.55
2023-03-28T14:08:50.458Z,64.81
2023-03-28T14:11:18.844Z,66.02
2023-03-28T14:13:46.135Z,64.81
2023-03-28T14:16:12.668Z,65.23
2023-03-28T14:18:44.189Z,64.53
2023-03-28T14:21:10.982Z,62.27
2023-03-28T14:23:39.168Z,60.88
2023-03-28T14:26:14.843Z,62.31
2023-03-28T14:28:41.781Z,60.73
2023-03-28T14:31:14.920Z,61.18
2023-03-28T14:33:41.959Z,62.26
2023-03-28T14:36:14.174Z,62.05
2023-03-28T14:38:40.675Z,62.89
2023-03-28T14:41:12.053Z,64.09
2023-03-28T14:43:38.611Z,64.75
2023-03-28T14:46:08.001Z,66.03
2023-03-28T14:48:36.858Z,66.16
2023-03-28T14:51:05.851Z,67.08
2023-03-28T14:53:37.712Z,68.97
2023-03-28T14:56:09.330Z,73.50
2023-03-28T14:58:38.378Z,75.89
2023-03-28T15:01:05.659Z,76.49
2023-03-28T15:03:33.769Z,76.99
2023-03-28T15:06:01.570Z,78.46
2023-03-28T15:08:37.862Z,80.12
2023-03-28T15:11:22.392Z,79.15
2023-03-28T15:14:01.078Z,79.60
2023-03-28T15:16:28.539Z,80.24
2023-03-28T15:19:09.381Z,81.39
2023-03-28T15:21:36.766Z,81.38
2023-03-28T15:24:04.316Z,81.67
2023-03-28T15:26:38.271Z,81.43
2023-03-28T15:29:07.136Z,80.96
2023-03-28T15:31:37.814Z,80.27
2023-03-28T15:34:08.679Z,79.32
2023-03-28T15:36:35.251Z,79.27
2023-03-28T15:39:10.756Z,78.96
2023-03-28T15:41:42.402Z,80.10
2023-03-28T15:44:11.410Z,82.37
2023-03-28T15:46:38.053Z,84.09
2023-03-28T15:49:06.235Z,85.87
2023-03-28T15:51:37.812Z,86.12
2023-03-28T15:54:04.917Z,87.40
2023-03-28T15:56:33.972Z,87.67
2023-03-28T15:59:01.900Z,87.30
2023-03-28T16:01:30.542Z,88.07
2023-03-28T16:04:15.752Z,87.04
2023-03-28T16:06:45.095Z,87.43
2023-03-28T16:09:18.060Z,87.66
2023-03-28T16:11:45.940Z,85.07
2023-03-28T16:14:21.375Z,82.85
2023-03-28T16:16:52.871Z,81.64
2023-03-28T16:19:21.159Z,80.29
2023-03-28T16:21:48.023Z,78.53
2023-03-28T16:24:14.728Z,78.04
2023-03-28T16:26:41.340Z,78.02
2023-03-28T16:29:08.071Z,77.29
2023-03-28T16:31:34.590Z,77.44
2023-03-28T16:34:01.143Z,77.72
2023-03-28T16:36:27.632Z,76.79
2023-03-28T16:38:54.107Z,76.66
2023-03-28T16:41:20.830Z,76.06
2023-03-28T16:43:47.569Z,76.83
2023-03-28T16:46:14.071Z,75.18
2023-03-28T16:48:40.938Z,75.25
2023-03-28T16:51:08.099Z,76.43
2023-03-28T16:53:34.988Z,76.73
2023-03-28T16:56:02.185Z,78.50
2023-03-28T16:58:29.782Z,79.89
2023-03-28T17:00:56.730Z,80.30
2023-03-28T17:03:23.781Z,80.07
2023-03-28T17:05:50.507Z,81.13
2023-03-28T17:08:16.991Z,81.64
2023-03-28T17:10:43.870Z,81.43
2023-03-28T17:13:10.630Z,81.32
2023-03-28T17:15:37.280Z,81.98
2023-03-28T17:18:05.703Z,82.36
2023-03-28T17:20:32.501Z,82.33
2023-03-28T17:22:58.955Z,82.73
2023-03-28T17:25:25.706Z,82.36
2023-03-28T17:27:52.387Z,82.50
2023-03-28T17:30:18.977Z,83.06
2023-03-28T17:32:45.598Z,83.76
2023-03-28T17:35:12.293Z,82.88
2023-03-28T17:37:39.176Z,84.59
2023-03-28T17:40:06.344Z,84.42
2023-03-28T17:42:32.800Z,83.99
2023-03-28T17:44:59.237Z,84.89
2023-03-28T17:47:25.791Z,83.99
2023-03-28T17:49:52.399Z,83.15
2023-03-28T17:52:19.231Z,82.54
2023-03-28T17:54:45.940Z,82.35
2023-03-28T17:57:12.607Z,81.05
2023-03-28T17:59:39.141Z,81.35
2023-03-28T18:02:05.672Z,80.71
2023-03-28T18:04:32.223Z,80.90
2023-03-28T18:06:58.884Z,81.49
2023-03-28T18:09:25.694Z,81.14
2023-03-28T18:11:52.490Z,81.76
2023-03-28T18:14:19.026Z,82.73
2023-03-28T18:16:45.645Z,84.49
2023-03-28T18:19:17.738Z,84.69
2023-03-28T18:21:44.978Z,84.90
2023-03-28T18:24:12.354Z,85.86
2023-03-28T18:26:38.942Z,85.95
2023-03-28T18:29:05.854Z,85.80
2023-03-28T18:31:32.765Z,86.26
2023-03-28T18:33:59.309Z,85.87
2023-03-28T18:36:26.170Z,86.12
2023-03-28T18:38:56.077Z,86.52
2023-03-28T18:41:22.959Z,86.47
2023-03-28T18:43:49.545Z,86.37
2023-03-28T18:46:16.505Z,86.10
2023-03-28T18:48:43.742Z,85.96
2023-03-28T18:51:10.371Z,85.98
2023-03-28T18:53:37.891Z,86.51
2023-03-28T18:56:07.890Z,86.95
2023-03-28T18:58:34.692Z,86.66
2023-03-28T19:01:03.493Z,85.31
2023-03-28T19:03:31.679Z,85.67
2023-03-28T19:06:18.182Z,85.15
2023-03-28T19:08:44.947Z,85.89
2023-03-28T19:11:13.307Z,86.12
2023-03-28T19:13:41.039Z,84.93
2023-03-28T19:16:10.247Z,85.09
2023-03-28T19:18:37.828Z,85.06
2023-03-28T19:21:04.561Z,84.99
2023-03-28T19:23:31.277Z,84.95
2023-03-28T19:25:58.055Z,84.33
2023-03-28T19:28:24.627Z,84.07
2023-03-28T19:31:01.846Z,84.97
2023-03-28T19:33:29.057Z,84.79
2023-03-28T19:35:55.860Z,84.03
2023-03-28T19:38:23.037Z,84.26
2023-03-28T19:40:49.899Z,84.46
2023-03-28T19:43:20.953Z,83.98
2023-03-28T19:45:48.501Z,82.51
2023-03-28T19:48:15.189Z,82.42
2023-03-28T19:50:42.168Z,81.46
2023-03-28T19:53:10.213Z,81.50
2023-03-28T19:55:37.256Z,81.35
2023-03-28T19:58:05.053Z,82.79
2023-03-28T20:00:32.255Z,82.22
2023-03-28T20:02:58.885Z,82.62
2023-03-28T20:05:25.406Z,82.68
2023-03-28T20:07:51.896Z,82.25
2023-03-28T20:10:18.566Z,82.27
2023-03-28T20:12:44.991Z,82.32
2023-03-28T20:15:11.674Z,82.58
2023-03-28T20:17:38.240Z,83.24
2023-03-28T20:20:05.044Z,83.13
2023-03-28T20:22:34.241Z,84.13
2023-03-28T20:25:01.365Z,83.19
2023-03-28T20:27:29.207Z,82.44
2023-03-28T20:29:55.903Z,82.73
2023-03-28T20:32:22.444Z,82.06
2023-03-28T20:34:49.157Z,81.01
2023-03-28T20:37:17.400Z,81.02
2023-03-28T20:39:48.324Z,81.38
2023-03-28T20:42:14.768Z,80.60
2023-03-28T20:44:41.259Z,81.26
2023-03-28T20:47:08.752Z,81.17
2023-03-28T20:49:36.170Z,81.31
2023-03-28T20:52:02.768Z,80.14
2023-03-28T20:54:29.478Z,80.43
2023-03-28T20:56:56.188Z,80.11
2023-03-28T20:59:23.850Z,80.02
2023-03-28T21:01:51.473Z,79.74
2023-03-28T21:04:17.899Z,80.50
2023-03-28T21:06:46.003Z,80.06
2023-03-28T21:09:18.069Z,79.95
2023-03-28T21:11:45.149Z,79.81
2023-03-28T21:14:13.030Z,79.10
2023-03-28T21:16:39.774Z,78.86
2023-03-28T21:19:06.267Z,78.56
2023-03-28T21:21:33.313Z,79.07
2023-03-28T21:24:00.281Z,79.18
2023-03-28T21:26:26.849Z,80.27
2023-03-28T21:28:53.425Z,80.42
2023-03-28T21:31:21.216Z,80.43
2023-03-28T21:33:48.664Z,79.36
2023-03-28T21:36:19.192Z,79.89
2023-03-28T21:38:46.923Z,79.84
2023-03-28T21:41:13.716Z,78.81
2023-03-28T21:43:40.147Z,79.01
2023-03-28T21:46:07.596Z,78.97
2023-03-28T21:48:34.892Z,79.54
2023-03-28T21:51:01.663Z,78.95
2023-03-28T21:53:37.734Z,79.57
2023-03-28T21:56:04.822Z,78.72
2023-03-28T21:58:32.726Z,78.64
2023-03-28T22:01:01.267Z,78.88
2023-03-28T22:03:28.657Z,79.27
2023-03-28T22:05:55.656Z,78.81
2023-03-28T22:08:22.538Z,79.36
2023-03-28T22:10:52.633Z,79.92
2023-03-28T22:13:19.433Z,79.60
2023-03-28T22:15:45.954Z,80.17
2023-03-28T22:18:12.577Z,81.02
2023-03-28T22:20:39.954Z,80.76
2023-03-28T22:23:06.969Z,80.21
2023-03-28T22:25:35.904Z,79.88
2023-03-28T22:28:04.311Z,78.91
2023-03-28T22:30:31.376Z,79.08
2023-03-28T22:32:58.163Z,78.95
2023-03-28T22:35:24.741Z,79.01
2023-03-28T22:37:51.467Z,78.03
2023-03-28T22:40:18.981Z,77.05
2023-03-28T22:42:45.519Z,76.45
2023-03-28T22:45:11.995Z,76.26
2023-03-28T22:47:41.989Z,76.15
2023-03-28T22:50:09.665Z,75.50
2023-03-28T22:52:38.058Z,75.69
2023-03-28T22:55:05.446Z,76.08
2023-03-28T22:57:31.985Z,75.32
2023-03-28T22:59:58.695Z,76.26
2023-03-28T23:02:25.201Z,75.48
2023-03-28T23:04:51.821Z,75.79
2023-03-28T23:07:18.545Z,73.84
2023-03-28T23:09:45.006Z,75.16
2023-03-28T23:12:11.478Z,75.51
2023-03-28T23:14:37.960Z,75.57
2023-03-28T23:17:04.775Z,74.98
2023-03-28T23:19:32.029Z,73.80
2023-03-28T23:21:59.464Z,72.78
2023-03-28T23:24:28.848Z,72.10
2023-03-28T23:26:56.035Z,71.11
2023-03-28T23:29:23.032Z,69.84
2023-03-28T23:31:49.590Z,70.66
2023-03-28T23:34:16.479Z,69.87
2023-03-28T23:36:46.024Z,69.03
2023-03-28T23:39:13.397Z,70.24
2023-03-28T23:41:40.702Z,69.13
2023-03-28T23:44:07.784Z,69.10
2023-03-28T23:46:34.281Z,68.20
2023-03-28T23:49:00.734Z,67.84
2023-03-28T23:51:29.130Z,67.97
2023-03-28T23:53:56.322Z,67.58
2023-03-28T23:56:23.928Z,65.97
2023-03-28T23:58:50.911Z,66.27
